Aérodrome :
LOGIN :

S'inscrire | Disclaimer

   EN    FR    IT 

 










Légende :    VFR   VFR Marginal   IFR   IFR Intensif   IFR Très Intensif
Visi : 
Plafond : 
>= 8 km
>= 3000ft
5 à 8 km
1000 à 3000 ft
1500m à 5 km
500 à 1000 ft
800 à 1500m
200 à 500 ft
< 800m
< 200 ft
Symboles :   Orages  Brouillard  Fortes neiges  Fortes précipitations  Vent > 20 kt
SIGMETs :   Divers  Orages  Givrage  Turbulence  Onde Orograph.  Cendres Volcan.







- Altitude de l'aérodrome : 3368 ft


LSGC - Les Eplatures

DERNIER METAR :
  • 172250Z AUTO VRB01KT 4900 -SN BKN/// M02/M03 Q1020

METARs EXPIRÉS :
  • 172220Z AUTO VRB02KT 3900 -SN BKN/// M02/M02 Q1020
  • 172150Z AUTO 27004KT 210V360 2800 -SN BKN/// M02/M02 Q1020
  • 172120Z AUTO VRB03KT 4600 -SN BKN/// M02/M02 Q1020
  • 172050Z AUTO 21004KT 180V250 2500 -SN BKN/// M02/M02 Q1019
  • 172020Z AUTO 24005KT 170V300 3200 -SN BR BKN/// M01/M02 Q1019

TAF TAF LSGC
Valide du 17 à 15h jusqu'au 18 à 00h UTC


171425Z 1715/1724 27011KT 9999 -RA BKN006
TEMPO 1715/1718 4000 BR OVC004
BECMG 1715/1717 2500 -SN
TEMPO 1716/1720 0600 SN VV001
Pas de NOTAMs connus pour ce terrain.



MET'MAP, la Météo Aéronautique d'un coup d'oeil ! - Copyright ORBIFLY Décembre 2007 - Disclaimer

ORBIFLY MET'MAP TEAM :

Programmation & Développement : Alexandra Zaïnal
Conception & Développement : Baudouin d'Aumeries
Co-Programmation & Développement : Marc-Olivier Méhu
Soutien technique & logistique : Manuel Goepfert

Contact : metmap@orbifly.com




SOURCES & CREDITS :

   NOAA